Time;durP1;ratioP1;P1;durP2;ratioP2;P2;SDS_P1;SDS_P2;PMS_P1;PMS_P2;Temp;Humidity;BMP_temperature;BMP_pressure;BME280_temperature;BME280_humidity;BME280_pressure;Samples;Min_cycle;Max_cycle;Signal;HPM_P1;HPM_P2
2021/07/27 00:00:00;;;;;;;20.57;11.17;;;20.20;99.90;;;;;;5141940;27;20599;-73
2021/07/27 00:02:47;;;;;;;21.17;11.07;;;20.20;99.90;;;;;;5141665;27;20198;-73
2021/07/27 00:05:36;;;;;;;17.80;11.73;;;20.20;99.90;;;;;;5141081;27;20282;-73
2021/07/27 00:08:23;;;;;;;18.63;11.33;;;20.20;99.90;;;;;;5136220;27;20716;-73
2021/07/27 00:11:12;;;;;;;16.80;11.00;;;20.20;99.90;;;;;;5139797;27;20218;-73
2021/07/27 00:14:01;;;;;;;18.60;11.30;;;20.20;99.90;;;;;;5150342;27;20209;-73
2021/07/27 00:16:48;;;;;;;17.43;11.67;;;20.20;99.90;;;;;;5137946;27;20194;-73
2021/07/27 00:19:36;;;;;;;15.57;11.23;;;20.30;99.90;;;;;;5147642;27;20617;-72
2021/07/27 00:22:24;;;;;;;17.97;10.50;;;20.30;99.90;;;;;;5150888;27;20204;-72
2021/07/27 00:25:14;;;;;;;17.33;11.37;;;20.30;99.90;;;;;;5151173;27;20193;-73
2021/07/27 00:28:02;;;;;;;17.37;11.00;;;20.30;99.90;;;;;;5134590;27;20213;-73
2021/07/27 00:30:51;;;;;;;18.73;10.93;;;20.30;99.90;;;;;;5151401;27;20214;-73
2021/07/27 00:33:39;;;;;;;17.73;11.20;;;20.40;99.90;;;;;;5153416;27;20227;-72
2021/07/27 00:36:26;;;;;;;19.80;11.83;;;20.40;99.90;;;;;;5154643;27;20216;-73
2021/07/27 00:39:14;;;;;;;22.93;11.60;;;20.30;99.90;;;;;;5151848;27;20273;-73
2021/07/27 00:42:01;;;;;;;21.47;11.33;;;20.30;99.90;;;;;;5151850;27;20194;-72
2021/07/27 00:44:50;;;;;;;18.77;11.53;;;20.30;99.90;;;;;;5142603;27;20675;-73
2021/07/27 00:47:39;;;;;;;19.43;11.17;;;20.20;99.90;;;;;;5152658;27;20609;-73
2021/07/27 00:50:27;;;;;;;18.80;11.33;;;20.20;99.90;;;;;;5154667;27;20221;-73
2021/07/27 00:53:15;;;;;;;18.67;11.77;;;20.20;99.90;;;;;;5134790;27;20190;-73
2021/07/27 00:56:02;;;;;;;21.80;11.23;;;20.20;99.90;;;;;;5135835;27;20588;-73
2021/07/27 00:58:50;;;;;;;19.63;11.77;;;20.20;99.90;;;;;;5134724;27;20198;-73
2021/07/27 01:01:38;;;;;;;16.50;11.20;;;20.20;99.90;;;;;;5134435;27;20191;-73
2021/07/27 01:04:27;;;;;;;16.60;11.73;;;20.20;99.90;;;;;;5138030;27;20209;-73
2021/07/27 01:07:14;;;;;;;18.33;11.03;;;20.10;99.90;;;;;;5155661;27;20686;-73
2021/07/27 01:10:02;;;;;;;17.87;10.43;;;20.10;99.90;;;;;;5138305;27;20190;-72
2021/07/27 01:12:50;;;;;;;19.93;11.17;;;20.00;99.90;;;;;;5147917;27;20194;-72
2021/07/27 01:15:37;;;;;;;17.20;10.60;;;20.00;99.90;;;;;;5152839;27;20242;-72
2021/07/27 01:18:28;;;;;;;16.83;10.50;;;20.00;99.90;;;;;;5153829;27;20247;-72
2021/07/27 01:39:49;;;;;;;18.37;10.37;;;19.70;99.90;;;;;;5152585;27;20196;-72
2021/07/27 01:42:40;;;;;;;19.33;11.03;;;19.60;99.90;;;;;;5154496;27;20699;-72
2021/07/27 01:45:27;;;;;;;20.63;10.27;;;19.60;99.90;;;;;;5144935;27;20557;-73
2021/07/27 01:48:15;;;;;;;14.93;9.90;;;19.60;99.90;;;;;;5151142;27;21779;-73
2021/07/27 01:51:07;;;;;;;18.37;10.27;;;19.60;99.90;;;;;;5134688;27;20215;-72
2021/07/27 01:53:55;;;;;;;17.07;10.27;;;19.50;99.90;;;;;;5133861;27;20583;-72
2021/07/27 01:56:46;;;;;;;14.23;10.50;;;19.40;99.90;;;;;;5134166;27;20202;-71
2021/07/27 01:59:33;;;;;;;15.40;10.07;;;19.40;99.90;;;;;;5134385;27;21812;-72
2021/07/27 02:02:21;;;;;;;18.27;10.10;;;19.30;99.90;;;;;;5150105;27;20200;-72
2021/07/27 02:05:10;;;;;;;17.57;9.63;;;19.30;99.90;;;;;;5151640;27;20201;-73
2021/07/27 02:07:58;;;;;;;13.03;9.07;;;19.30;99.90;;;;;;5133993;27;20197;-73
2021/07/27 02:10:50;;;;;;;15.03;9.00;;;19.30;99.90;;;;;;5152186;27;20214;-73
2021/07/27 02:13:50;;;;;;;12.63;8.57;;;19.20;99.90;;;;;;5133790;27;20262;-72
2021/07/27 02:16:37;;;;;;;15.97;9.27;;;19.00;99.90;;;;;;5151355;27;20204;-71
2021/07/27 02:19:25;;;;;;;16.43;10.50;;;19.00;99.90;;;;;;5154132;27;20204;-71
2021/07/27 02:22:13;;;;;;;18.23;11.40;;;19.00;99.90;;;;;;5152258;27;20208;-70
2021/07/27 02:25:01;;;;;;;17.53;11.70;;;18.90;99.90;;;;;;5154028;27;20200;-71
2021/07/27 02:27:49;;;;;;;18.63;11.30;;;18.90;99.90;;;;;;5144037;27;20211;-72
2021/07/27 02:30:40;;;;;;;20.77;11.03;;;18.90;99.90;;;;;;5151890;27;20208;-72
2021/07/27 02:33:28;;;;;;;19.13;11.23;;;19.00;99.90;;;;;;5140849;27;20563;-72
2021/07/27 02:36:16;;;;;;;15.27;10.30;;;19.00;99.90;;;;;;5144050;27;20289;-72
2021/07/27 02:39:04;;;;;;;21.73;11.13;;;19.00;99.90;;;;;;5144381;27;20308;-72
2021/07/27 02:41:51;;;;;;;21.03;10.63;;;19.00;99.90;;;;;;5149073;27;20194;-72
2021/07/27 02:44:39;;;;;;;15.80;10.50;;;19.00;99.90;;;;;;5140623;27;20223;-72
2021/07/27 02:47:28;;;;;;;18.90;11.47;;;18.90;99.90;;;;;;5144928;27;20228;-72
2021/07/27 02:50:15;;;;;;;17.10;11.17;;;18.90;99.90;;;;;;5143956;27;20229;-72
2021/07/27 02:53:03;;;;;;;14.73;9.67;;;18.90;99.90;;;;;;5134612;27;20193;-73
2021/07/27 02:55:51;;;;;;;13.73;9.23;;;18.90;99.90;;;;;;5136482;27;20212;-70
2021/07/27 02:58:39;;;;;;;15.80;10.00;;;18.90;99.90;;;;;;5153276;27;20206;-70
2021/07/27 03:01:26;;;;;;;13.20;8.90;;;18.80;99.90;;;;;;5140627;27;20638;-70
2021/07/27 03:04:16;;;;;;;13.53;9.33;;;18.80;99.90;;;;;;5142199;27;20950;-70
2021/07/27 03:07:05;;;;;;;15.07;8.73;;;18.80;99.90;;;;;;5132284;27;20210;-71
2021/07/27 03:12:57;;;;;;;13.27;8.90;;;18.80;99.90;;;;;;5131953;27;20218;-70
2021/07/27 03:15:45;;;;;;;17.07;8.93;;;18.80;99.90;;;;;;5131656;27;20269;-70
2021/07/27 03:18:32;;;;;;;14.47;8.57;;;18.80;99.90;;;;;;5131662;27;20205;-70
2021/07/27 03:21:22;;;;;;;14.77;8.43;;;18.80;99.90;;;;;;5132142;27;20262;-70
2021/07/27 03:24:09;;;;;;;16.47;8.90;;;18.80;99.90;;;;;;5132490;27;20967;-71
2021/07/27 03:26:57;;;;;;;12.77;8.53;;;18.70;99.90;;;;;;5131339;27;20614;-71
2021/07/27 03:29:45;;;;;;;13.63;8.83;;;18.70;99.90;;;;;;5131903;27;20266;-71
2021/07/27 03:32:33;;;;;;;13.03;7.80;;;18.70;99.90;;;;;;5134015;27;20210;-70
2021/07/27 03:35:21;;;;;;;13.53;8.67;;;18.70;99.90;;;;;;5144682;27;20667;-70
2021/07/27 03:38:13;;;;;;;16.87;8.87;;;18.70;99.90;;;;;;5143251;27;20199;-70
2021/07/27 03:41:25;;;;;;;13.30;7.93;;;18.70;99.90;;;;;;5137833;27;20248;-70
2021/07/27 03:44:13;;;;;;;11.60;8.63;;;18.70;99.90;;;;;;5152177;27;20200;-70
2021/07/27 03:47:07;;;;;;;14.47;8.27;;;18.70;99.90;;;;;;5152049;27;20221;-71
2021/07/27 03:50:16;;;;;;;13.93;8.60;;;18.70;99.90;;;;;;5151107;27;20664;-71
2021/07/27 03:53:41;;;;;;;13.27;8.17;;;18.70;99.90;;;;;;5018621;27;20220;-71
2021/07/27 03:56:31;;;;;;;12.83;7.80;;;18.70;99.90;;;;;;5111370;28;20347;-71
2021/07/27 03:59:18;;;;;;;10.23;7.10;;;18.80;99.90;;;;;;5095198;28;20787;-71
2021/07/27 04:02:06;;;;;;;10.33;7.10;;;18.80;99.90;;;;;;5097599;28;20302;-71
2021/07/27 04:04:53;;;;;;;12.53;7.33;;;18.70;99.90;;;;;;5102878;28;20198;-71
2021/07/27 04:07:41;;;;;;;11.47;7.47;;;18.70;99.90;;;;;;5100741;28;20543;-71
2021/07/27 04:10:29;;;;;;;15.67;8.30;;;18.70;99.90;;;;;;5109182;28;20210;-71
2021/07/27 04:13:18;;;;;;;10.70;8.03;;;18.70;99.90;;;;;;5095214;28;20227;-71
2021/07/27 04:16:06;;;;;;;13.83;8.07;;;18.80;99.90;;;;;;5096015;28;20210;-71
2021/07/27 04:18:54;;;;;;;11.93;7.60;;;18.80;99.90;;;;;;5113326;28;20198;-71
2021/07/27 04:21:41;;;;;;;14.07;8.20;;;18.80;99.90;;;;;;5112167;28;20233;-71
2021/07/27 04:24:29;;;;;;;15.17;7.80;;;18.90;99.90;;;;;;5095703;28;20211;-71
2021/07/27 04:27:17;;;;;;;12.73;8.20;;;18.90;99.90;;;;;;5104234;28;20221;-71
2021/07/27 04:30:09;;;;;;;13.17;8.73;;;18.90;99.90;;;;;;5108896;28;20207;-71
2021/07/27 04:32:56;;;;;;;16.40;10.37;;;18.90;99.90;;;;;;5106559;28;20229;-71
2021/07/27 04:35:44;;;;;;;16.77;10.27;;;18.90;99.90;;;;;;5095066;28;20202;-70
2021/07/27 04:38:31;;;;;;;14.93;10.50;;;18.80;99.90;;;;;;5104725;28;20697;-71
2021/07/27 04:41:19;;;;;;;16.83;10.63;;;18.80;99.90;;;;;;5099060;28;20203;-71
2021/07/27 04:44:07;;;;;;;18.77;10.07;;;18.80;99.90;;;;;;5095130;28;20620;-72
2021/07/27 04:46:56;;;;;;;14.57;9.80;;;18.90;99.90;;;;;;5108472;28;20254;-71
2021/07/27 04:49:44;;;;;;;15.63;9.80;;;18.90;99.90;;;;;;5115198;28;20234;-71
2021/07/27 04:52:32;;;;;;;14.63;9.20;;;19.00;99.90;;;;;;5094517;28;20562;-71
2021/07/27 04:55:19;;;;;;;14.00;9.27;;;19.00;99.90;;;;;;5123788;27;20686;-71
2021/07/27 04:58:07;;;;;;;15.27;7.60;;;19.10;99.90;;;;;;5148111;27;20197;-71
2021/07/27 05:01:00;;;;;;;12.67;7.90;;;19.10;99.90;;;;;;5154640;27;20204;-71
2021/07/27 05:03:49;;;;;;;15.60;8.43;;;19.20;99.90;;;;;;5134366;27;20198;-71
2021/07/27 05:06:38;;;;;;;16.50;7.90;;;19.20;99.90;;;;;;5133850;27;20206;-71
2021/07/27 05:09:26;;;;;;;13.17;8.17;;;19.30;99.90;;;;;;5134771;27;20198;-71
2021/07/27 05:12:14;;;;;;;12.17;7.97;;;19.30;99.90;;;;;;5134196;27;20213;-71
2021/07/27 05:15:01;;;;;;;14.87;8.20;;;19.30;99.90;;;;;;5133061;27;20789;-71
2021/07/27 05:17:49;;;;;;;13.97;8.80;;;19.40;99.90;;;;;;5133778;27;20188;-71
2021/07/27 05:20:38;;;;;;;12.73;8.80;;;19.50;99.90;;;;;;5143850;27;20202;-71
2021/07/27 05:23:26;;;;;;;16.70;8.83;;;19.60;99.90;;;;;;5153535;27;20200;-71
2021/07/27 05:26:14;;;;;;;13.90;8.90;;;19.70;99.90;;;;;;5136462;27;20202;-71
2021/07/27 05:29:01;;;;;;;13.43;7.93;;;20.00;99.90;;;;;;5134990;27;20209;-71
2021/07/27 05:31:49;;;;;;;15.37;9.20;;;20.00;99.90;;;;;;5149535;27;20276;-71
2021/07/27 05:34:37;;;;;;;17.70;9.00;;;20.00;99.90;;;;;;5134065;27;20635;-71
2021/07/27 05:37:26;;;;;;;13.20;8.47;;;20.10;99.90;;;;;;5139225;27;20208;-71
2021/07/27 05:40:14;;;;;;;14.10;8.47;;;20.10;99.90;;;;;;5148011;27;20210;-71
2021/07/27 05:43:02;;;;;;;15.70;9.07;;;20.20;99.90;;;;;;5143459;27;20636;-71
2021/07/27 05:45:50;;;;;;;19.33;9.40;;;20.20;99.90;;;;;;5142898;27;20222;-71
2021/07/27 05:48:38;;;;;;;19.57;9.97;;;20.30;99.90;;;;;;5134440;27;20267;-72
2021/07/27 05:51:27;;;;;;;18.93;9.17;;;20.20;99.90;;;;;;5134900;27;20199;-71
2021/07/27 05:54:18;;;;;;;15.00;9.37;;;20.30;99.90;;;;;;5143690;27;20228;-71
2021/07/27 05:57:10;;;;;;;13.90;9.63;;;20.30;99.90;;;;;;5136622;27;20197;-71
2021/07/27 05:59:57;;;;;;;17.87;10.80;;;20.10;99.90;;;;;;5133757;27;20206;-71
2021/07/27 06:02:45;;;;;;;21.50;11.77;;;20.00;99.90;;;;;;5146858;27;20197;-71
2021/07/27 06:05:32;;;;;;;22.93;12.67;;;20.10;99.90;;;;;;5153333;27;20208;-71
2021/07/27 06:08:20;;;;;;;19.27;12.40;;;20.10;99.90;;;;;;5152445;27;20253;-71
2021/07/27 06:11:11;;;;;;;24.60;13.90;;;20.20;99.90;;;;;;5153278;27;20539;-71
2021/07/27 06:14:00;;;;;;;23.17;13.73;;;20.30;99.90;;;;;;5135046;27;20195;-71
2021/07/27 06:16:47;;;;;;;21.67;13.93;;;20.40;99.90;;;;;;5145778;27;20207;-71
2021/07/27 06:19:35;;;;;;;23.80;13.93;;;20.50;99.90;;;;;;5145476;27;20209;-66
2021/07/27 06:22:22;;;;;;;20.17;14.20;;;20.80;99.90;;;;;;5133394;27;20202;-66
2021/07/27 06:25:12;;;;;;;21.00;14.47;;;20.90;99.90;;;;;;5133020;27;20213;-66
2021/07/27 06:28:01;;;;;;;24.90;15.83;;;20.90;99.90;;;;;;5132049;27;20278;-66
2021/07/27 06:30:49;;;;;;;27.17;15.27;;;21.00;99.90;;;;;;5132255;27;20206;-66
2021/07/27 06:33:36;;;;;;;28.33;15.27;;;21.20;99.90;;;;;;5132975;27;20217;-66
2021/07/27 06:36:24;;;;;;;21.87;14.90;;;21.30;99.90;;;;;;5133252;27;20195;-66
2021/07/27 06:39:11;;;;;;;25.03;14.50;;;21.40;99.90;;;;;;5131549;27;20214;-66
2021/07/27 06:41:59;;;;;;;28.67;14.57;;;21.50;99.90;;;;;;5146081;27;20198;-66
2021/07/27 06:44:48;;;;;;;21.27;13.50;;;21.40;99.90;;;;;;5152033;27;20194;-66
2021/07/27 06:47:35;;;;;;;27.93;13.53;;;21.50;99.90;;;;;;5148529;27;20226;-66
2021/07/27 06:50:25;;;;;;;28.13;14.67;;;21.50;99.90;;;;;;5142827;27;20197;-66
2021/07/27 06:53:12;;;;;;;30.87;14.53;;;21.60;99.90;;;;;;5134448;27;20213;-67
2021/07/27 06:56:00;;;;;;;22.87;13.63;;;21.70;99.90;;;;;;5143381;27;20230;-66
2021/07/27 06:58:48;;;;;;;24.07;13.20;;;21.80;99.90;;;;;;5137815;27;20197;-66
2021/07/27 07:01:37;;;;;;;21.30;13.17;;;21.90;99.90;;;;;;5142687;27;20202;-66
2021/07/27 07:04:24;;;;;;;21.90;13.53;;;21.90;99.90;;;;;;5132172;27;20204;-66
2021/07/27 07:07:12;;;;;;;25.13;12.97;;;21.80;99.90;;;;;;5132446;27;20209;-66
2021/07/27 07:10:00;;;;;;;18.80;12.33;;;21.70;99.90;;;;;;5132772;27;20198;-66
2021/07/27 07:12:47;;;;;;;20.73;13.10;;;21.50;99.90;;;;;;5144532;27;20293;-66
2021/07/27 07:15:35;;;;;;;21.37;13.87;;;21.50;99.90;;;;;;5146396;27;20656;-66
2021/07/27 07:18:24;;;;;;;21.77;13.90;;;21.60;99.90;;;;;;5151309;27;20205;-66
2021/07/27 07:21:12;;;;;;;22.93;12.93;;;21.60;99.90;;;;;;5133126;27;20198;-66
2021/07/27 07:24:00;;;;;;;20.23;12.67;;;21.60;99.90;;;;;;5133665;27;20233;-66
2021/07/27 07:26:49;;;;;;;21.23;13.73;;;21.60;99.90;;;;;;5141246;27;20193;-67
2021/07/27 07:29:37;;;;;;;18.70;12.97;;;21.60;99.90;;;;;;5131447;27;20200;-67
2021/07/27 07:32:24;;;;;;;22.00;13.20;;;21.60;99.90;;;;;;5131466;27;20215;-66
2021/07/27 07:35:15;;;;;;;24.87;13.53;;;21.70;99.90;;;;;;5143909;27;20561;-67
2021/07/27 07:38:03;;;;;;;20.27;12.70;;;21.80;99.90;;;;;;5150147;27;20334;-66
2021/07/27 07:40:51;;;;;;;22.27;13.03;;;22.00;99.90;;;;;;5147867;27;20198;-66
2021/07/27 07:43:38;;;;;;;17.50;11.90;;;22.20;99.90;;;;;;5132120;27;20538;-66
2021/07/27 07:46:26;;;;;;;16.73;10.37;;;22.40;99.90;;;;;;5131929;27;20219;-66
2021/07/27 07:49:13;;;;;;;14.07;10.10;;;22.70;99.90;;;;;;5142475;27;20749;-66
2021/07/27 07:52:03;;;;;;;13.70;9.73;;;23.10;99.90;;;;;;5152069;27;20225;-66
2021/07/27 07:54:50;;;;;;;14.23;9.60;;;23.30;99.90;;;;;;5133445;27;20697;-67
2021/07/27 07:57:38;;;;;;;16.37;8.50;;;23.30;99.90;;;;;;5138870;27;20199;-67
2021/07/27 08:00:26;;;;;;;14.57;8.30;;;23.20;99.90;;;;;;5130680;27;20193;-67
2021/07/27 08:03:14;;;;;;;15.53;8.90;;;23.10;99.90;;;;;;5131771;27;20221;-66
2021/07/27 08:06:01;;;;;;;15.30;8.70;;;23.00;99.90;;;;;;5144760;27;20201;-66
2021/07/27 08:08:50;;;;;;;12.00;8.30;;;23.10;99.90;;;;;;5134120;27;20653;-66
2021/07/27 08:11:40;;;;;;;13.97;7.93;;;23.10;99.90;;;;;;5131289;27;20672;-66
2021/07/27 08:14:28;;;;;;;9.10;6.57;;;23.10;99.90;;;;;;5146909;27;20216;-66
2021/07/27 08:17:15;;;;;;;10.70;6.93;;;23.00;99.90;;;;;;5151175;27;20198;-66
2021/07/27 08:20:04;;;;;;;13.50;7.60;;;22.90;99.90;;;;;;5141686;27;20198;-66
2021/07/27 08:22:53;;;;;;;9.40;7.13;;;22.90;99.90;;;;;;5150855;27;20200;-66
2021/07/27 08:25:42;;;;;;;12.67;7.30;;;23.00;99.90;;;;;;5141789;27;20277;-66
2021/07/27 08:28:30;;;;;;;12.50;7.20;;;23.00;99.90;;;;;;5151702;27;20317;-66
2021/07/27 08:31:17;;;;;;;11.97;6.97;;;23.10;99.90;;;;;;5151295;27;20281;-66
2021/07/27 08:34:05;;;;;;;15.73;7.50;;;23.20;99.90;;;;;;5151079;27;20214;-66
2021/07/27 08:36:53;;;;;;;16.97;7.93;;;23.40;99.90;;;;;;5144120;27;20246;-66
2021/07/27 08:39:40;;;;;;;13.63;7.07;;;23.60;99.90;;;;;;5132736;27;20195;-67
2021/07/27 08:42:30;;;;;;;16.97;8.20;;;23.50;99.90;;;;;;5135458;27;20209;-66
2021/07/27 08:45:18;;;;;;;14.83;8.40;;;23.80;99.90;;;;;;5138318;27;20560;-66
2021/07/27 08:48:06;;;;;;;11.70;7.83;;;24.00;99.90;;;;;;5132751;27;20263;-67
2021/07/27 08:50:54;;;;;;;15.83;9.73;;;24.20;99.90;;;;;;5142253;27;20195;-67
2021/07/27 08:53:41;;;;;;;18.13;10.20;;;23.90;99.90;;;;;;5134676;27;20217;-66
2021/07/27 08:56:30;;;;;;;21.85;10.15;;;23.90;99.90;;;;;;5139204;27;20197;-67
2021/07/27 08:59:19;;;;;;;18.00;9.20;;;23.80;99.90;;;;;;5142889;27;20729;-67
2021/07/27 09:02:07;;;;;;;16.50;9.65;;;23.90;99.90;;;;;;5140684;27;20216;-67
2021/07/27 09:05:06;;;;;;;16.17;9.43;;;24.10;99.90;;;;;;5146827;27;20525;-66
2021/07/27 09:08:02;;;;;;;17.48;10.38;;;24.20;99.90;;;;;;5135884;27;20218;-67
2021/07/27 09:10:52;;;;;;;16.42;9.88;;;24.50;99.90;;;;;;5141418;27;20225;-67
2021/07/27 09:13:39;;;;;;;15.77;9.88;;;24.60;99.90;;;;;;5136058;27;20254;-67
2021/07/27 09:16:28;;;;;;;15.43;9.80;;;24.50;99.90;;;;;;5150570;27;20217;-67
2021/07/27 09:19:16;;;;;;;16.95;10.38;;;24.80;99.90;;;;;;5134476;27;20246;-67
2021/07/27 09:22:05;;;;;;;17.63;10.57;;;24.80;99.90;;;;;;5151443;27;20206;-67
2021/07/27 09:24:52;;;;;;;16.35;11.10;;;24.80;99.90;;;;;;5150702;27;20197;-66
2021/07/27 09:27:40;;;;;;;17.88;11.05;;;24.90;99.90;;;;;;5140397;27;20273;-67
2021/07/27 09:30:29;;;;;;;18.92;10.82;;;24.80;99.90;;;;;;5153909;27;20313;-67
2021/07/27 09:33:18;;;;;;;17.38;11.90;;;24.60;99.90;;;;;;5149120;27;20210;-66
2021/07/27 09:36:07;;;;;;;19.75;11.65;;;24.30;99.90;;;;;;5142036;27;20209;-67
2021/07/27 09:39:02;;;;;;;23.20;11.90;;;24.10;99.90;;;;;;5137028;27;20313;-67
2021/07/27 09:41:58;;;;;;;23.45;12.23;;;23.90;99.90;;;;;;5141101;27;20559;-67
2021/07/27 09:44:46;;;;;;;16.85;11.40;;;24.00;99.90;;;;;;5143736;27;20205;-67
2021/07/27 09:47:34;;;;;;;17.17;10.80;;;24.60;99.90;;;;;;5154246;27;20228;-66
2021/07/27 09:50:23;;;;;;;14.60;11.02;;;25.30;99.90;;;;;;5144195;27;20197;-67
2021/07/27 09:53:11;;;;;;;15.57;10.75;;;25.80;99.90;;;;;;5145321;27;20577;-67
2021/07/27 09:55:58;;;;;;;16.98;10.23;;;25.70;99.90;;;;;;5137014;27;20221;-66
2021/07/27 09:58:46;;;;;;;17.98;11.27;;;25.70;99.90;;;;;;5139284;27;20554;-67
2021/07/27 10:01:34;;;;;;;14.98;11.45;;;25.80;99.90;;;;;;5147770;27;20270;-67
2021/07/27 10:04:23;;;;;;;17.40;11.57;;;25.90;99.90;;;;;;5135458;27;20558;-66
2021/07/27 10:07:12;;;;;;;20.40;12.63;;;25.90;99.90;;;;;;5149435;27;20649;-66
2021/07/27 10:10:06;;;;;;;19.23;12.55;;;25.60;99.90;;;;;;5152176;27;20259;-67
2021/07/27 10:13:04;;;;;;;18.58;11.82;;;25.60;99.90;;;;;;5146291;27;20277;-66
2021/07/27 10:15:52;;;;;;;18.25;13.15;;;25.60;99.90;;;;;;5152736;27;20201;-66
2021/07/27 10:18:40;;;;;;;17.63;12.60;;;25.50;99.90;;;;;;5152482;27;20613;-66
2021/07/27 10:21:28;;;;;;;19.75;13.02;;;25.90;99.90;;;;;;5134075;27;20194;-66
2021/07/27 10:24:19;;;;;;;18.00;13.45;;;26.10;99.90;;;;;;5132934;27;20750;-66
2021/07/27 10:27:08;;;;;;;18.40;12.63;;;26.30;99.90;;;;;;5133344;27;20203;-66
2021/07/27 10:30:05;;;;;;;20.02;13.77;;;26.30;99.90;;;;;;5149884;27;20198;-67
2021/07/27 10:32:53;;;;;;;25.83;14.25;;;26.00;99.90;;;;;;5131971;27;20672;-66
2021/07/27 10:35:41;;;;;;;19.30;13.57;;;26.30;99.90;;;;;;5138176;27;20204;-66
2021/07/27 10:38:39;;;;;;;21.88;13.90;;;26.40;99.90;;;;;;5149082;27;20199;-66
2021/07/27 10:41:35;;;;;;;19.80;12.02;;;26.20;99.90;;;;;;5132278;27;20195;-66
2021/07/27 10:44:23;;;;;;;18.98;12.65;;;26.30;99.90;;;;;;5133046;27;20207;-66
2021/07/27 10:47:19;;;;;;;22.05;13.00;;;26.40;99.90;;;;;;5148467;27;20305;-66
2021/07/27 10:50:08;;;;;;;16.58;12.13;;;26.70;99.90;;;;;;5145904;27;20201;-66
2021/07/27 10:53:04;;;;;;;16.77;12.55;;;26.50;99.90;;;;;;5136579;27;20207;-66
2021/07/27 10:55:53;;;;;;;16.92;12.05;;;26.60;99.90;;;;;;5134224;27;20261;-66
2021/07/27 10:58:44;;;;;;;17.27;11.75;;;26.80;99.90;;;;;;5132482;27;20682;-67
2021/07/27 11:01:33;;;;;;;19.33;12.65;;;27.20;99.90;;;;;;5131727;27;20203;-66
2021/07/27 11:04:28;;;;;;;19.10;11.65;;;27.40;99.90;;;;;;5131722;27;20264;-67
2021/07/27 11:07:16;;;;;;;16.75;11.27;;;27.60;99.90;;;;;;5131444;27;20199;-66
2021/07/27 11:10:05;;;;;;;13.70;9.73;;;28.10;99.90;;;;;;5132788;27;20206;-66
2021/07/27 11:12:52;;;;;;;10.93;8.68;;;28.20;99.90;;;;;;5131518;27;20285;-66
2021/07/27 11:15:41;;;;;;;14.43;9.50;;;28.10;99.90;;;;;;5132318;27;20214;-66
2021/07/27 11:18:29;;;;;;;13.07;8.40;;;28.00;99.90;;;;;;5131331;27;20680;-67
2021/07/27 11:21:17;;;;;;;10.50;8.40;;;28.10;99.90;;;;;;5135087;27;20206;-66
2021/07/27 11:24:05;;;;;;;10.48;8.50;;;28.40;99.90;;;;;;5132541;27;20210;-66
2021/07/27 11:26:53;;;;;;;11.50;8.73;;;28.30;99.90;;;;;;5132587;27;20202;-66
2021/07/27 11:29:41;;;;;;;12.80;8.85;;;28.30;99.90;;;;;;5131711;27;20198;-66
2021/07/27 11:32:42;;;;;;;14.60;8.93;;;28.20;99.90;;;;;;5138326;27;20212;-66
2021/07/27 11:35:31;;;;;;;11.75;8.80;;;28.20;99.90;;;;;;5141109;27;20221;-66
2021/07/27 11:38:22;;;;;;;11.77;8.30;;;28.20;99.90;;;;;;5140900;27;20196;-66
2021/07/27 11:41:10;;;;;;;11.52;8.57;;;28.40;99.90;;;;;;5130873;27;20210;-66
2021/07/27 11:43:57;;;;;;;12.48;8.55;;;28.50;99.90;;;;;;5145075;27;20226;-67
2021/07/27 11:46:45;;;;;;;12.07;8.25;;;28.60;99.90;;;;;;5139939;27;20583;-67
2021/07/27 11:49:35;;;;;;;12.55;8.60;;;28.30;99.90;;;;;;5132136;27;20206;-66
2021/07/27 11:52:27;;;;;;;12.68;9.32;;;28.20;99.90;;;;;;5131825;27;20650;-66
2021/07/27 11:55:14;;;;;;;10.13;8.82;;;28.40;99.90;;;;;;5131392;27;20303;-66
2021/07/27 11:58:02;;;;;;;14.50;9.43;;;28.40;99.90;;;;;;5144946;27;20201;-66
2021/07/27 12:00:55;;;;;;;14.82;9.77;;;28.70;99.90;;;;;;5150306;27;20209;-67
2021/07/27 12:03:43;;;;;;;15.02;9.88;;;28.60;99.90;;;;;;5151073;27;20768;-66
2021/07/27 12:06:32;;;;;;;12.25;9.57;;;28.30;99.90;;;;;;5141866;27;20209;-66
2021/07/27 12:09:21;;;;;;;15.13;9.95;;;28.30;99.90;;;;;;5144685;27;20194;-66
2021/07/27 12:12:09;;;;;;;13.13;9.15;;;28.50;99.90;;;;;;5150499;27;20213;-66
2021/07/27 12:14:57;;;;;;;9.65;8.02;;;28.50;99.90;;;;;;5139604;27;20206;-66
2021/07/27 12:17:44;;;;;;;11.38;8.57;;;28.60;99.90;;;;;;5149915;27;20676;-66
2021/07/27 12:20:32;;;;;;;10.82;8.90;;;28.70;99.90;;;;;;5151514;27;20209;-66
2021/07/27 12:23:21;;;;;;;11.43;8.63;;;29.30;99.90;;;;;;5130978;28;20198;-66
2021/07/27 12:26:08;;;;;;;14.32;9.73;;;29.50;99.90;;;;;;5132651;27;20198;-66
2021/07/27 12:28:56;;;;;;;13.65;9.23;;;29.50;99.90;;;;;;5133778;27;20209;-66
2021/07/27 12:31:43;;;;;;;13.35;9.30;;;29.50;99.90;;;;;;5134462;27;20209;-66
2021/07/27 12:34:31;;;;;;;11.57;8.50;;;29.50;99.90;;;;;;5135016;27;20230;-66
2021/07/27 12:37:19;;;;;;;16.63;8.40;;;29.50;99.90;;;;;;5133888;27;20199;-66
2021/07/27 12:40:10;;;;;;;10.48;7.65;;;29.50;99.90;;;;;;5135509;27;20205;-66
2021/07/27 12:42:58;;;;;;;9.32;6.95;;;29.40;99.90;;;;;;5135139;27;20198;-66
2021/07/27 12:45:45;;;;;;;11.85;7.70;;;29.60;99.90;;;;;;5135025;27;20232;-66
2021/07/27 12:48:33;;;;;;;11.00;8.10;;;29.70;99.90;;;;;;5134849;27;20206;-66
2021/07/27 12:51:21;;;;;;;12.75;8.63;;;29.70;99.90;;;;;;5135487;27;20286;-66
2021/07/27 12:54:08;;;;;;;14.98;8.20;;;29.40;99.90;;;;;;5134909;27;20226;-66
2021/07/27 12:57:00;;;;;;;12.75;7.65;;;29.30;99.90;;;;;;5134699;27;20211;-66
2021/07/27 12:59:47;;;;;;;10.73;8.25;;;29.40;99.90;;;;;;5134401;27;20232;-66
2021/07/27 13:02:35;;;;;;;9.73;7.75;;;29.50;99.90;;;;;;5134549;27;20206;-66
2021/07/27 13:05:22;;;;;;;10.70;7.75;;;29.60;99.90;;;;;;5134469;27;20195;-65
2021/07/27 13:08:10;;;;;;;14.00;7.45;;;29.70;99.90;;;;;;5135107;27;20205;-66
2021/07/27 13:10:57;;;;;;;11.30;7.38;;;30.10;99.90;;;;;;5134225;27;20544;-66
2021/07/27 13:13:46;;;;;;;9.50;7.53;;;30.00;99.90;;;;;;5134676;27;20210;-66
2021/07/27 13:16:35;;;;;;;12.00;8.23;;;29.80;99.90;;;;;;5134064;27;20649;-66
2021/07/27 13:19:23;;;;;;;10.32;7.60;;;30.00;99.90;;;;;;5134308;27;20201;-66
2021/07/27 13:22:11;;;;;;;10.70;7.80;;;29.90;99.90;;;;;;5134787;27;20236;-66
2021/07/27 13:24:59;;;;;;;13.73;7.97;;;30.10;99.90;;;;;;5133385;27;20763;-66
2021/07/27 13:27:47;;;;;;;11.60;8.38;;;29.90;99.90;;;;;;5133717;27;20199;-66
2021/07/27 13:30:36;;;;;;;13.05;7.68;;;30.10;99.90;;;;;;5133913;27;20210;-66
2021/07/27 13:33:23;;;;;;;10.95;7.65;;;30.40;99.90;;;;;;5134562;27;20202;-66
2021/07/27 13:36:11;;;;;;;10.00;7.45;;;30.20;99.90;;;;;;5134631;27;20206;-66
2021/07/27 13:39:00;;;;;;;8.60;6.70;;;30.20;99.90;;;;;;5134130;27;20657;-66
2021/07/27 13:41:47;;;;;;;9.52;6.70;;;30.10;99.90;;;;;;5132870;27;20676;-66
2021/07/27 13:44:35;;;;;;;9.70;7.45;;;30.30;99.90;;;;;;5133624;27;20205;-66
2021/07/27 13:47:24;;;;;;;13.48;6.20;;;30.40;99.90;;;;;;5134138;27;20581;-66
2021/07/27 13:50:12;;;;;;;13.52;6.72;;;30.30;99.90;;;;;;5132856;27;20217;-66
2021/07/27 13:52:59;;;;;;;10.10;6.32;;;30.60;99.90;;;;;;5133918;27;20206;-66
2021/07/27 13:55:48;;;;;;;7.22;5.63;;;31.00;99.90;;;;;;5133569;27;20653;-66
2021/07/27 13:58:35;;;;;;;8.48;6.03;;;30.90;99.90;;;;;;5133165;27;20203;-66
2021/07/27 14:01:23;;;;;;;7.53;5.40;;;30.50;99.90;;;;;;5132631;27;20210;-66
2021/07/27 14:04:12;;;;;;;7.30;5.88;;;30.40;99.90;;;;;;5133901;27;20221;-66
2021/07/27 14:07:00;;;;;;;10.38;6.20;;;30.60;99.90;;;;;;5133597;27;20197;-66
2021/07/27 14:09:47;;;;;;;7.85;5.35;;;30.80;99.90;;;;;;5132961;27;20323;-66
2021/07/27 14:12:35;;;;;;;8.73;5.50;;;30.90;99.90;;;;;;5133254;27;20217;-66
2021/07/27 14:15:23;;;;;;;11.15;5.72;;;31.00;99.90;;;;;;5133110;27;20218;-66
2021/07/27 14:18:10;;;;;;;7.57;5.53;;;30.90;99.90;;;;;;5133548;27;20598;-66
2021/07/27 14:20:59;;;;;;;9.13;5.30;;;30.80;99.90;;;;;;5131912;27;20202;-66
2021/07/27 14:23:47;;;;;;;7.30;4.90;;;30.90;99.90;;;;;;5132788;27;20203;-66
2021/07/27 14:26:36;;;;;;;7.20;5.07;;;30.90;99.90;;;;;;5132861;27;20669;-66
2021/07/27 14:29:23;;;;;;;9.43;5.90;;;31.20;99.90;;;;;;5133908;27;20205;-66
2021/07/27 14:32:11;;;;;;;9.73;5.15;;;31.20;99.90;;;;;;5132869;27;20209;-66
2021/07/27 14:34:58;;;;;;;5.78;4.97;;;31.10;99.90;;;;;;5133119;27;20215;-66
2021/07/27 14:37:48;;;;;;;5.78;5.00;;;30.70;99.90;;;;;;5133306;27;20206;-66
2021/07/27 14:40:35;;;;;;;6.80;5.07;;;30.80;99.90;;;;;;5133196;27;20206;-66
2021/07/27 14:43:23;;;;;;;5.45;4.80;;;30.60;99.90;;;;;;5133226;27;20653;-66